Mattawamkeag, Maine
Current Conditions -  °F | °C
As of 9:53 PM on Tuesday 21 Oct 2014 (Local Time) from KMLT Reporting Station
Light Rain Light Rain  
Wind Chill: 40°   Ceiling: 3100
Heat Index: 43°   Visibility: 10mi
Dew Point: 38°   Wind: 5mph
Humidity: 82%   Direction: 10°N
Pressure: 30.24"   Gusts: NA
Location:  45.51°N, 68.35°W
Report Text: KMLT 220153Z AUTO 01004KT 10SM -RA OVC031 06/03 A3024 RMK AO2 RAB0059E25B53 SLP247 P0000 T00610033
Loading
Personal Weather Stations






























Interactive Weather Map
Tropical Storm Tracking
New forecast layout! Learn more

10-Day Weather Forecast

Advertisements
Track Severe Weather on mobile